sensor_id;sensor_type;location;lat;lon;timestamp;temperature;humidity
54884;DHT22;40776;52.880;6.016;2023-07-08T00:57:18;17.20;99.90
54884;DHT22;40776;52.880;6.016;2023-07-08T04:23:18;15.90;99.90
54884;DHT22;40776;52.880;6.016;2023-07-08T05:48:59;19.40;99.90
54884;DHT22;40776;52.880;6.016;2023-07-08T06:03:37;20.00;99.90
54884;DHT22;40776;52.880;6.016;2023-07-08T06:08:34;20.40;99.90
54884;DHT22;40776;52.880;6.016;2023-07-08T06:13:25;20.60;99.90
54884;DHT22;40776;52.880;6.016;2023-07-08T06:20:51;21.30;99.90
54884;DHT22;40776;52.880;6.016;2023-07-08T06:23:17;21.40;99.90
54884;DHT22;40776;52.880;6.016;2023-07-08T06:25:43;21.50;99.90
54884;DHT22;40776;52.880;6.016;2023-07-08T06:28:08;21.70;99.90
54884;DHT22;40776;52.880;6.016;2023-07-08T06:30:34;21.50;99.90
54884;DHT22;40776;52.880;6.016;2023-07-08T06:35:26;21.80;99.90
54884;DHT22;40776;52.880;6.016;2023-07-08T06:40:17;22.20;99.90
54884;DHT22;40776;52.880;6.016;2023-07-08T06:42:45;22.20;99.90
54884;DHT22;40776;52.880;6.016;2023-07-08T06:45:11;22.30;99.90
54884;DHT22;40776;52.880;6.016;2023-07-08T06:47:37;22.40;99.90
54884;DHT22;40776;52.880;6.016;2023-07-08T06:50:03;22.70;99.90
54884;DHT22;40776;52.880;6.016;2023-07-08T06:52:28;22.90;99.90
54884;DHT22;40776;52.880;6.016;2023-07-08T06:55:03;23.00;99.90
54884;DHT22;40776;52.880;6.016;2023-07-08T06:59:55;23.20;99.90
54884;DHT22;40776;52.880;6.016;2023-07-08T07:02:23;23.40;99.90
54884;DHT22;40776;52.880;6.016;2023-07-08T07:04:49;23.50;99.90
54884;DHT22;40776;52.880;6.016;2023-07-08T07:07:17;23.60;99.90
54884;DHT22;40776;52.880;6.016;2023-07-08T07:09:43;23.90;99.90
54884;DHT22;40776;52.880;6.016;2023-07-08T07:12:09;23.80;99.90
54884;DHT22;40776;52.880;6.016;2023-07-08T07:14:35;24.00;99.90
54884;DHT22;40776;52.880;6.016;2023-07-08T07:17:01;23.80;99.90
54884;DHT22;40776;52.880;6.016;2023-07-08T07:19:26;24.00;99.90
54884;DHT22;40776;52.880;6.016;2023-07-08T07:21:52;24.40;99.90
54884;DHT22;40776;52.880;6.016;2023-07-08T07:24:18;24.40;99.90
54884;DHT22;40776;52.880;6.016;2023-07-08T07:26:44;24.40;99.90
54884;DHT22;40776;52.880;6.016;2023-07-08T07:29:10;24.30;99.90
54884;DHT22;40776;52.880;6.016;2023-07-08T07:31:36;24.60;99.90
54884;DHT22;40776;52.880;6.016;2023-07-08T07:34:05;24.50;99.90
54884;DHT22;40776;52.880;6.016;2023-07-08T07:36:31;25.10;99.90
54884;DHT22;40776;52.880;6.016;2023-07-08T07:38:56;24.90;99.90
54884;DHT22;40776;52.880;6.016;2023-07-08T07:41:27;25.30;99.90
54884;DHT22;40776;52.880;6.016;2023-07-08T07:43:53;25.40;99.90
54884;DHT22;40776;52.880;6.016;2023-07-08T07:46:19;25.50;99.90
54884;DHT22;40776;52.880;6.016;2023-07-08T07:48:45;25.50;99.90
54884;DHT22;40776;52.880;6.016;2023-07-08T07:51:11;25.50;99.90
54884;DHT22;40776;52.880;6.016;2023-07-08T07:53:38;25.50;99.90
54884;DHT22;40776;52.880;6.016;2023-07-08T07:56:04;26.00;99.90
54884;DHT22;40776;52.880;6.016;2023-07-08T07:58:31;26.00;99.90
54884;DHT22;40776;52.880;6.016;2023-07-08T08:00:57;25.90;99.90
54884;DHT22;40776;52.880;6.016;2023-07-08T08:03:23;25.90;99.90
54884;DHT22;40776;52.880;6.016;2023-07-08T08:05:49;26.10;99.90
54884;DHT22;40776;52.880;6.016;2023-07-08T08:08:15;25.90;99.90
54884;DHT22;40776;52.880;6.016;2023-07-08T08:10:42;26.20;99.90
54884;DHT22;40776;52.880;6.016;2023-07-08T08:13:08;26.00;99.90
54884;DHT22;40776;52.880;6.016;2023-07-08T08:15:35;26.00;99.90
54884;DHT22;40776;52.880;6.016;2023-07-08T08:18:01;26.50;99.90
54884;DHT22;40776;52.880;6.016;2023-07-08T08:20:28;26.20;99.90
54884;DHT22;40776;52.880;6.016;2023-07-08T08:22:54;26.70;99.90
54884;DHT22;40776;52.880;6.016;2023-07-08T08:25:21;26.40;99.90
54884;DHT22;40776;52.880;6.016;2023-07-08T08:27:47;26.50;99.90
54884;DHT22;40776;52.880;6.016;2023-07-08T08:30:13;26.60;99.90
54884;DHT22;40776;52.880;6.016;2023-07-08T08:32:39;26.40;99.90
54884;DHT22;40776;52.880;6.016;2023-07-08T08:35:05;26.80;99.90
54884;DHT22;40776;52.880;6.016;2023-07-08T08:37:31;26.70;99.90
54884;DHT22;40776;52.880;6.016;2023-07-08T08:39:57;26.80;99.90
54884;DHT22;40776;52.880;6.016;2023-07-08T08:42:40;26.60;99.90
54884;DHT22;40776;52.880;6.016;2023-07-08T08:45:11;26.60;99.90
54884;DHT22;40776;52.880;6.016;2023-07-08T08:47:39;26.80;99.90
54884;DHT22;40776;52.880;6.016;2023-07-08T08:50:26;26.60;99.90
54884;DHT22;40776;52.880;6.016;2023-07-08T08:52:53;26.90;99.90
54884;DHT22;40776;52.880;6.016;2023-07-08T08:55:22;26.90;99.90
54884;DHT22;40776;52.880;6.016;2023-07-08T09:03:41;27.40;99.90
54884;DHT22;40776;52.880;6.016;2023-07-08T09:06:12;27.50;99.90
54884;DHT22;40776;52.880;6.016;2023-07-08T09:08:38;27.80;99.90
54884;DHT22;40776;52.880;6.016;2023-07-08T09:11:19;27.60;99.90
54884;DHT22;40776;52.880;6.016;2023-07-08T09:13:49;27.90;99.90
54884;DHT22;40776;52.880;6.016;2023-07-08T09:19:21;28.10;99.90
54884;DHT22;40776;52.880;6.016;2023-07-08T09:21:59;28.10;99.90
54884;DHT22;40776;52.880;6.016;2023-07-08T09:24:44;28.20;99.90
54884;DHT22;40776;52.880;6.016;2023-07-08T09:27:10;28.20;99.90
54884;DHT22;40776;52.880;6.016;2023-07-08T09:29:36;28.40;99.90
54884;DHT22;40776;52.880;6.016;2023-07-08T09:32:23;28.40;99.90
54884;DHT22;40776;52.880;6.016;2023-07-08T09:35:02;28.70;99.90
54884;DHT22;40776;52.880;6.016;2023-07-08T09:37:34;28.80;99.90
54884;DHT22;40776;52.880;6.016;2023-07-08T09:42:46;29.00;99.90
54884;DHT22;40776;52.880;6.016;2023-07-08T09:45:20;28.90;99.90
54884;DHT22;40776;52.880;6.016;2023-07-08T09:47:51;29.00;99.90
54884;DHT22;40776;52.880;6.016;2023-07-08T09:50:18;29.10;99.90
54884;DHT22;40776;52.880;6.016;2023-07-08T09:52:47;28.90;99.90
54884;DHT22;40776;52.880;6.016;2023-07-08T09:55:13;29.00;99.90
54884;DHT22;40776;52.880;6.016;2023-07-08T09:57:39;29.10;99.90
54884;DHT22;40776;52.880;6.016;2023-07-08T10:00:12;29.10;99.90
54884;DHT22;40776;52.880;6.016;2023-07-08T10:02:49;29.10;99.90
54884;DHT22;40776;52.880;6.016;2023-07-08T10:07:55;29.20;99.90
54884;DHT22;40776;52.880;6.016;2023-07-08T10:10:37;29.40;99.90
54884;DHT22;40776;52.880;6.016;2023-07-08T10:13:08;29.40;99.90
54884;DHT22;40776;52.880;6.016;2023-07-08T10:15:40;29.70;99.90
54884;DHT22;40776;52.880;6.016;2023-07-08T10:18:17;29.80;99.90
54884;DHT22;40776;52.880;6.016;2023-07-08T10:20:54;30.00;99.90
54884;DHT22;40776;52.880;6.016;2023-07-08T10:23:40;29.80;99.90
54884;DHT22;40776;52.880;6.016;2023-07-08T10:29:04;30.20;99.60
54884;DHT22;40776;52.880;6.016;2023-07-08T11:06:57;30.90;97.00
54884;DHT22;40776;52.880;6.016;2023-07-08T11:09:28;31.10;98.20
54884;DHT22;40776;52.880;6.016;2023-07-08T11:14:54;30.80;98.10
54884;DHT22;40776;52.880;6.016;2023-07-08T11:17:30;30.60;98.10
54884;DHT22;40776;52.880;6.016;2023-07-08T11:20:10;30.90;98.60
54884;DHT22;40776;52.880;6.016;2023-07-08T11:23:47;31.00;97.80
54884;DHT22;40776;52.880;6.016;2023-07-08T11:25:41;31.00;97.80
54884;DHT22;40776;52.880;6.016;2023-07-08T11:28:14;31.00;97.90
54884;DHT22;40776;52.880;6.016;2023-07-08T11:30:41;31.00;98.20
54884;DHT22;40776;52.880;6.016;2023-07-08T11:33:12;31.00;98.30
54884;DHT22;40776;52.880;6.016;2023-07-08T11:35:42;31.10;98.50
54884;DHT22;40776;52.880;6.016;2023-07-08T11:38:20;31.50;98.50
54884;DHT22;40776;52.880;6.016;2023-07-08T11:41:12;31.40;98.30
54884;DHT22;40776;52.880;6.016;2023-07-08T11:43:45;31.40;98.00
54884;DHT22;40776;52.880;6.016;2023-07-08T11:46:15;31.80;97.40
54884;DHT22;40776;52.880;6.016;2023-07-08T11:48:47;31.60;97.30
54884;DHT22;40776;52.880;6.016;2023-07-08T11:51:19;31.40;98.10
54884;DHT22;40776;52.880;6.016;2023-07-08T11:54:11;31.70;97.90
54884;DHT22;40776;52.880;6.016;2023-07-08T11:59:19;31.60;97.20
54884;DHT22;40776;52.880;6.016;2023-07-08T12:02:21;31.90;97.00
54884;DHT22;40776;52.880;6.016;2023-07-08T12:04:57;32.00;97.10
54884;DHT22;40776;52.880;6.016;2023-07-08T12:07:37;32.00;97.70
54884;DHT22;40776;52.880;6.016;2023-07-08T12:12:42;32.20;96.90
54884;DHT22;40776;52.880;6.016;2023-07-08T12:15:31;32.20;97.50
54884;DHT22;40776;52.880;6.016;2023-07-08T12:18:28;32.70;96.10
54884;DHT22;40776;52.880;6.016;2023-07-08T12:20:58;32.40;95.30
54884;DHT22;40776;52.880;6.016;2023-07-08T12:23:27;32.40;96.20
54884;DHT22;40776;52.880;6.016;2023-07-08T12:25:54;32.40;96.10
54884;DHT22;40776;52.880;6.016;2023-07-08T12:28:21;32.50;96.20
54884;DHT22;40776;52.880;6.016;2023-07-08T12:30:48;32.50;95.80
54884;DHT22;40776;52.880;6.016;2023-07-08T12:33:18;32.80;95.80
54884;DHT22;40776;52.880;6.016;2023-07-08T12:35:45;32.90;96.00
54884;DHT22;40776;52.880;6.016;2023-07-08T12:40:45;33.10;95.50
54884;DHT22;40776;52.880;6.016;2023-07-08T12:43:12;32.90;95.20
54884;DHT22;40776;52.880;6.016;2023-07-08T12:45:38;33.20;94.90
54884;DHT22;40776;52.880;6.016;2023-07-08T12:48:09;33.00;94.90
54884;DHT22;40776;52.880;6.016;2023-07-08T12:50:34;33.30;95.60
54884;DHT22;40776;52.880;6.016;2023-07-08T12:53:00;32.90;94.60
54884;DHT22;40776;52.880;6.016;2023-07-08T12:55:30;32.90;94.30
54884;DHT22;40776;52.880;6.016;2023-07-08T12:57:56;32.80;95.00
54884;DHT22;40776;52.880;6.016;2023-07-08T13:00:26;32.80;94.80
54884;DHT22;40776;52.880;6.016;2023-07-08T13:03:08;33.00;94.00
54884;DHT22;40776;52.880;6.016;2023-07-08T13:05:38;33.20;94.60
54884;DHT22;40776;52.880;6.016;2023-07-08T13:08:04;33.20;94.20
54884;DHT22;40776;52.880;6.016;2023-07-08T13:10:33;33.10;94.00
54884;DHT22;40776;52.880;6.016;2023-07-08T13:13:03;33.00;94.10
54884;DHT22;40776;52.880;6.016;2023-07-08T13:15:36;33.40;94.40
54884;DHT22;40776;52.880;6.016;2023-07-08T13:18:04;33.40;94.40
54884;DHT22;40776;52.880;6.016;2023-07-08T13:20:29;33.10;94.30
54884;DHT22;40776;52.880;6.016;2023-07-08T13:23:00;33.10;94.30
54884;DHT22;40776;52.880;6.016;2023-07-08T13:25:29;33.50;94.70
54884;DHT22;40776;52.880;6.016;2023-07-08T13:27:56;33.30;94.30
54884;DHT22;40776;52.880;6.016;2023-07-08T13:30:25;33.40;95.00
54884;DHT22;40776;52.880;6.016;2023-07-08T13:32:56;33.50;94.50
54884;DHT22;40776;52.880;6.016;2023-07-08T13:35:34;33.50;93.80
54884;DHT22;40776;52.880;6.016;2023-07-08T13:38:02;33.70;94.50
54884;DHT22;40776;52.880;6.016;2023-07-08T13:40:29;33.50;94.70
54884;DHT22;40776;52.880;6.016;2023-07-08T13:42:56;33.80;94.90
54884;DHT22;40776;52.880;6.016;2023-07-08T13:45:29;33.50;94.00
54884;DHT22;40776;52.880;6.016;2023-07-08T13:53:32;33.80;92.70
54884;DHT22;40776;52.880;6.016;2023-07-08T13:56:03;33.60;93.30
54884;DHT22;40776;52.880;6.016;2023-07-08T13:58:30;33.80;93.20
54884;DHT22;40776;52.880;6.016;2023-07-08T14:00:57;33.80;93.00
54884;DHT22;40776;52.880;6.016;2023-07-08T14:03:23;33.60;92.90
54884;DHT22;40776;52.880;6.016;2023-07-08T14:05:50;33.90;93.40
54884;DHT22;40776;52.880;6.016;2023-07-08T14:08:17;33.70;92.90
54884;DHT22;40776;52.880;6.016;2023-07-08T14:10:47;33.80;92.30
54884;DHT22;40776;52.880;6.016;2023-07-08T14:13:13;34.20;92.50
54884;DHT22;40776;52.880;6.016;2023-07-08T14:15:41;34.20;92.00
54884;DHT22;40776;52.880;6.016;2023-07-08T14:18:09;34.00;92.10
54884;DHT22;40776;52.880;6.016;2023-07-08T14:20:35;33.80;92.80
54884;DHT22;40776;52.880;6.016;2023-07-08T14:23:01;34.20;92.10
54884;DHT22;40776;52.880;6.016;2023-07-08T14:25:27;34.30;92.20
54884;DHT22;40776;52.880;6.016;2023-07-08T14:27:53;34.30;91.80
54884;DHT22;40776;52.880;6.016;2023-07-08T14:30:18;34.50;91.90
54884;DHT22;40776;52.880;6.016;2023-07-08T14:32:44;34.40;91.80
54884;DHT22;40776;52.880;6.016;2023-07-08T14:35:28;34.60;92.00
54884;DHT22;40776;52.880;6.016;2023-07-08T14:37:54;34.80;91.70
54884;DHT22;40776;52.880;6.016;2023-07-08T14:40:34;35.40;91.70
54884;DHT22;40776;52.880;6.016;2023-07-08T14:43:04;35.90;89.90
54884;DHT22;40776;52.880;6.016;2023-07-08T14:45:42;36.40;89.00
54884;DHT22;40776;52.880;6.016;2023-07-08T14:48:15;36.90;89.30
54884;DHT22;40776;52.880;6.016;2023-07-08T14:50:41;37.10;88.80
54884;DHT22;40776;52.880;6.016;2023-07-08T14:53:07;37.30;88.30
54884;DHT22;40776;52.880;6.016;2023-07-08T14:55:33;36.90;87.50
54884;DHT22;40776;52.880;6.016;2023-07-08T14:58:00;37.30;88.40
54884;DHT22;40776;52.880;6.016;2023-07-08T15:00:26;37.60;88.50
54884;DHT22;40776;52.880;6.016;2023-07-08T15:02:52;37.50;86.60
54884;DHT22;40776;52.880;6.016;2023-07-08T15:05:23;37.20;85.90
54884;DHT22;40776;52.880;6.016;2023-07-08T15:07:51;37.60;87.20
54884;DHT22;40776;52.880;6.016;2023-07-08T15:10:18;37.70;86.80
54884;DHT22;40776;52.880;6.016;2023-07-08T15:12:46;38.00;85.00
54884;DHT22;40776;52.880;6.016;2023-07-08T15:15:23;37.70;84.60
54884;DHT22;40776;52.880;6.016;2023-07-08T15:17:51;38.30;84.40
54884;DHT22;40776;52.880;6.016;2023-07-08T15:20:18;38.60;84.20
54884;DHT22;40776;52.880;6.016;2023-07-08T15:22:44;38.30;84.90
54884;DHT22;40776;52.880;6.016;2023-07-08T15:25:14;38.70;84.60
54884;DHT22;40776;52.880;6.016;2023-07-08T15:27:50;38.80;82.80
54884;DHT22;40776;52.880;6.016;2023-07-08T15:30:25;38.60;83.80
54884;DHT22;40776;52.880;6.016;2023-07-08T15:32:51;38.80;81.30
54884;DHT22;40776;52.880;6.016;2023-07-08T15:35:24;38.70;83.40
54884;DHT22;40776;52.880;6.016;2023-07-08T15:37:58;38.70;82.70
54884;DHT22;40776;52.880;6.016;2023-07-08T15:40:25;38.70;83.10
54884;DHT22;40776;52.880;6.016;2023-07-08T15:42:55;38.70;82.90
54884;DHT22;40776;52.880;6.016;2023-07-08T15:45:22;38.40;82.20
54884;DHT22;40776;52.880;6.016;2023-07-08T15:47:48;38.80;82.90
54884;DHT22;40776;52.880;6.016;2023-07-08T15:50:16;38.80;81.40
54884;DHT22;40776;52.880;6.016;2023-07-08T15:52:43;39.00;80.60
54884;DHT22;40776;52.880;6.016;2023-07-08T15:55:11;38.80;78.30
54884;DHT22;40776;52.880;6.016;2023-07-08T15:57:46;38.80;78.30
54884;DHT22;40776;52.880;6.016;2023-07-08T16:00:21;39.00;78.60
54884;DHT22;40776;52.880;6.016;2023-07-08T16:02:51;39.20;78.80
54884;DHT22;40776;52.880;6.016;2023-07-08T16:05:18;39.20;78.20
54884;DHT22;40776;52.880;6.016;2023-07-08T16:07:46;39.10;78.10
54884;DHT22;40776;52.880;6.016;2023-07-08T16:10:13;38.90;78.10
54884;DHT22;40776;52.880;6.016;2023-07-08T16:12:39;38.50;78.30
54884;DHT22;40776;52.880;6.016;2023-07-08T16:15:15;37.50;80.30
54884;DHT22;40776;52.880;6.016;2023-07-08T16:17:42;37.40;80.30
54884;DHT22;40776;52.880;6.016;2023-07-08T16:22:40;36.20;83.00
54884;DHT22;40776;52.880;6.016;2023-07-08T16:25:06;36.00;83.80
54884;DHT22;40776;52.880;6.016;2023-07-08T16:27:32;35.60;83.80
54884;DHT22;40776;52.880;6.016;2023-07-08T16:29:58;35.70;84.90
54884;DHT22;40776;52.880;6.016;2023-07-08T16:32:24;36.00;84.60
54884;DHT22;40776;52.880;6.016;2023-07-08T16:34:50;36.40;83.90
54884;DHT22;40776;52.880;6.016;2023-07-08T16:37:15;36.50;83.30
54884;DHT22;40776;52.880;6.016;2023-07-08T16:39:41;36.40;83.60
54884;DHT22;40776;52.880;6.016;2023-07-08T16:42:13;36.00;83.90
54884;DHT22;40776;52.880;6.016;2023-07-08T16:44:39;36.00;84.60
54884;DHT22;40776;52.880;6.016;2023-07-08T16:47:08;35.90;85.60
54884;DHT22;40776;52.880;6.016;2023-07-08T16:49:33;35.20;85.90
54884;DHT22;40776;52.880;6.016;2023-07-08T16:51:59;35.00;86.80
54884;DHT22;40776;52.880;6.016;2023-07-08T16:54:24;34.70;86.80
54884;DHT22;40776;52.880;6.016;2023-07-08T16:56:50;34.30;87.60
54884;DHT22;40776;52.880;6.016;2023-07-08T16:59:16;34.80;87.70
54884;DHT22;40776;52.880;6.016;2023-07-08T17:01:43;34.50;87.90
54884;DHT22;40776;52.880;6.016;2023-07-08T17:04:11;35.20;87.50
54884;DHT22;40776;52.880;6.016;2023-07-08T17:06:38;35.90;85.80
54884;DHT22;40776;52.880;6.016;2023-07-08T17:09:03;36.40;85.20
54884;DHT22;40776;52.880;6.016;2023-07-08T17:11:31;35.90;84.50
54884;DHT22;40776;52.880;6.016;2023-07-08T17:13:56;36.20;84.80
54884;DHT22;40776;52.880;6.016;2023-07-08T17:16:30;36.40;84.50
54884;DHT22;40776;52.880;6.016;2023-07-08T17:18:57;36.50;85.30
54884;DHT22;40776;52.880;6.016;2023-07-08T17:21:23;36.70;84.80
54884;DHT22;40776;52.880;6.016;2023-07-08T17:23:49;36.60;84.60
54884;DHT22;40776;52.880;6.016;2023-07-08T17:26:15;36.50;85.50
54884;DHT22;40776;52.880;6.016;2023-07-08T17:28:41;36.00;86.40
54884;DHT22;40776;52.880;6.016;2023-07-08T17:31:11;35.50;87.10
54884;DHT22;40776;52.880;6.016;2023-07-08T17:33:39;35.30;88.50
54884;DHT22;40776;52.880;6.016;2023-07-08T17:36:09;34.50;89.30
54884;DHT22;40776;52.880;6.016;2023-07-08T17:38:44;34.00;90.00
54884;DHT22;40776;52.880;6.016;2023-07-08T17:41:16;33.80;90.60
54884;DHT22;40776;52.880;6.016;2023-07-08T17:43:41;33.60;91.20
54884;DHT22;40776;52.880;6.016;2023-07-08T17:46:12;32.90;92.00
54884;DHT22;40776;52.880;6.016;2023-07-08T17:48:39;32.60;92.20
54884;DHT22;40776;52.880;6.016;2023-07-08T17:51:08;32.40;92.80
54884;DHT22;40776;52.880;6.016;2023-07-08T17:53:33;32.20;93.30
54884;DHT22;40776;52.880;6.016;2023-07-08T17:55:59;32.10;93.90
54884;DHT22;40776;52.880;6.016;2023-07-08T17:58:25;31.80;93.80
54884;DHT22;40776;52.880;6.016;2023-07-08T18:00:53;31.40;94.20
54884;DHT22;40776;52.880;6.016;2023-07-08T18:03:18;31.30;94.50
54884;DHT22;40776;52.880;6.016;2023-07-08T18:05:44;31.50;95.40
54884;DHT22;40776;52.880;6.016;2023-07-08T18:08:10;31.20;96.00
54884;DHT22;40776;52.880;6.016;2023-07-08T18:10:36;30.90;96.10
54884;DHT22;40776;52.880;6.016;2023-07-08T18:13:04;31.00;96.30
54884;DHT22;40776;52.880;6.016;2023-07-08T18:15:34;31.10;96.60
54884;DHT22;40776;52.880;6.016;2023-07-08T18:18:01;30.50;97.10
54884;DHT22;40776;52.880;6.016;2023-07-08T18:20:35;30.60;97.70
54884;DHT22;40776;52.880;6.016;2023-07-08T18:23:02;30.40;97.40
54884;DHT22;40776;52.880;6.016;2023-07-08T18:25:31;30.50;97.00
54884;DHT22;40776;52.880;6.016;2023-07-08T18:28:00;30.50;97.70
54884;DHT22;40776;52.880;6.016;2023-07-08T18:30:28;30.20;97.40
54884;DHT22;40776;52.880;6.016;2023-07-08T18:32:55;30.20;96.90
54884;DHT22;40776;52.880;6.016;2023-07-08T18:35:26;30.40;96.90
54884;DHT22;40776;52.880;6.016;2023-07-08T18:37:53;30.20;97.10
54884;DHT22;40776;52.880;6.016;2023-07-08T18:42:54;30.30;98.30
54884;DHT22;40776;52.880;6.016;2023-07-08T18:45:21;30.40;98.90
54884;DHT22;40776;52.880;6.016;2023-07-08T18:47:47;30.20;99.30
54884;DHT22;40776;52.880;6.016;2023-07-08T18:50:13;30.20;99.10
54884;DHT22;40776;52.880;6.016;2023-07-08T18:52:39;30.30;99.30
54884;DHT22;40776;52.880;6.016;2023-07-08T18:55:10;30.10;99.40
54884;DHT22;40776;52.880;6.016;2023-07-08T18:57:36;30.00;98.50
54884;DHT22;40776;52.880;6.016;2023-07-08T19:00:02;30.00;98.70
54884;DHT22;40776;52.880;6.016;2023-07-08T19:02:32;29.80;98.40
54884;DHT22;40776;52.880;6.016;2023-07-08T19:04:58;29.50;98.20
54884;DHT22;40776;52.880;6.016;2023-07-08T19:07:24;29.70;98.30
54884;DHT22;40776;52.880;6.016;2023-07-08T19:09:50;29.50;98.60
54884;DHT22;40776;52.880;6.016;2023-07-08T19:12:16;29.50;99.00
54884;DHT22;40776;52.880;6.016;2023-07-08T19:14:43;29.30;99.80
54884;DHT22;40776;52.880;6.016;2023-07-08T19:17:09;29.10;99.90
54884;DHT22;40776;52.880;6.016;2023-07-08T19:19:34;28.80;99.90
54884;DHT22;40776;52.880;6.016;2023-07-08T19:22:00;29.10;99.90
54884;DHT22;40776;52.880;6.016;2023-07-08T19:24:28;28.80;99.90
54884;DHT22;40776;52.880;6.016;2023-07-08T19:26:54;28.50;99.90
54884;DHT22;40776;52.880;6.016;2023-07-08T19:29:20;28.40;99.90
54884;DHT22;40776;52.880;6.016;2023-07-08T19:31:47;28.20;99.90
54884;DHT22;40776;52.880;6.016;2023-07-08T19:34:13;28.20;99.90
54884;DHT22;40776;52.880;6.016;2023-07-08T19:36:40;28.10;99.90
54884;DHT22;40776;52.880;6.016;2023-07-08T19:39:05;27.80;99.90
54884;DHT22;40776;52.880;6.016;2023-07-08T19:41:34;27.80;99.90
54884;DHT22;40776;52.880;6.016;2023-07-08T19:44:23;27.60;99.90
54884;DHT22;40776;52.880;6.016;2023-07-08T19:46:49;27.50;99.90
54884;DHT22;40776;52.880;6.016;2023-07-08T19:49:15;27.30;99.90
54884;DHT22;40776;52.880;6.016;2023-07-08T19:54:06;27.20;99.90
54884;DHT22;40776;52.880;6.016;2023-07-08T19:56:32;27.10;99.90
54884;DHT22;40776;52.880;6.016;2023-07-08T19:58:58;26.80;99.90
54884;DHT22;40776;52.880;6.016;2023-07-08T20:03:50;26.80;99.90
54884;DHT22;40776;52.880;6.016;2023-07-08T20:06:25;26.50;99.90
54884;DHT22;40776;52.880;6.016;2023-07-08T20:08:52;26.30;99.90
54884;DHT22;40776;52.880;6.016;2023-07-08T20:16:23;26.00;99.90
54884;DHT22;40776;52.880;6.016;2023-07-08T20:18:49;25.90;99.90
54884;DHT22;40776;52.880;6.016;2023-07-08T20:23:43;25.80;99.90
54884;DHT22;40776;52.880;6.016;2023-07-08T20:26:24;25.50;99.90
54884;DHT22;40776;52.880;6.016;2023-07-08T20:36:14;25.60;99.90
54884;DHT22;40776;52.880;6.016;2023-07-08T20:38:41;25.40;99.90
54884;DHT22;40776;52.880;6.016;2023-07-08T20:46:00;25.00;99.90
54884;DHT22;40776;52.880;6.016;2023-07-08T20:48:29;25.00;99.90
54884;DHT22;40776;52.880;6.016;2023-07-08T20:55:50;24.90;99.90
54884;DHT22;40776;52.880;6.016;2023-07-08T20:58:18;24.70;99.90
54884;DHT22;40776;52.880;6.016;2023-07-08T21:03:16;24.90;99.90
54884;DHT22;40776;52.880;6.016;2023-07-08T21:05:54;24.80;99.90
54884;DHT22;40776;52.880;6.016;2023-07-08T21:08:25;24.70;99.90
54884;DHT22;40776;52.880;6.016;2023-07-08T21:10:52;24.60;99.90
54884;DHT22;40776;52.880;6.016;2023-07-08T21:15:45;24.50;99.90
54884;DHT22;40776;52.880;6.016;2023-07-08T21:23:10;24.60;99.90
54884;DHT22;40776;52.880;6.016;2023-07-08T21:35:26;24.00;99.90
54884;DHT22;40776;52.880;6.016;2023-07-08T21:38:01;24.40;99.90
54884;DHT22;40776;52.880;6.016;2023-07-08T21:45:29;24.10;99.90
54884;DHT22;40776;52.880;6.016;2023-07-08T21:55:18;23.90;99.90
54884;DHT22;40776;52.880;6.016;2023-07-08T22:00:11;23.90;99.90
54884;DHT22;40776;52.880;6.016;2023-07-08T22:02:48;24.10;99.90
54884;DHT22;40776;52.880;6.016;2023-07-08T22:05:20;23.90;99.90
54884;DHT22;40776;52.880;6.016;2023-07-08T22:10:15;23.90;99.90
54884;DHT22;40776;52.880;6.016;2023-07-08T22:12:42;24.10;99.90
54884;DHT22;40776;52.880;6.016;2023-07-08T22:15:24;24.00;99.90
54884;DHT22;40776;52.880;6.016;2023-07-08T22:20:25;23.60;99.90
54884;DHT22;40776;52.880;6.016;2023-07-08T22:25:27;23.90;99.90
